PST,Max TemperatureF,Mean TemperatureF,Min TemperatureF,Max Dew PointF,MeanDew PointF,Min DewpointF,Max Humidity, Mean Humidity, Min Humidity, Max Sea Level PressureIn, Mean Sea Level PressureIn, Min Sea Level PressureIn, Max VisibilityMiles, Mean VisibilityMiles, Min VisibilityMiles, Max Wind SpeedMPH, Mean Wind SpeedMPH, Max Gust SpeedMPH,PrecipitationIn, CloudCover, Events, WindDirDegrees
1991-1-1,47,44,39,38,36,35,85,77,71,30.25,30.21,30.18,15,10,5,5,2,,0.00,2,,295
1991-1-2,49,42,34,38,35,30,83,74,65,30.16,30.14,30.12,10,9,7,0,0,,0.00,3,,-1
1991-1-3,52,48,42,42,38,36,86,75,69,30.09,30.03,29.98,10,8,7,6,4,,0.00,5,,40
1991-1-4,44,40,37,41,39,35,97,92,86,30.04,29.99,29.97,7,6,5,7,4,,0.00,4,,116
1991-1-5,47,45,40,39,38,37,88,81,73,30.14,30.12,30.09,10,7,3,7,6,,0.00,6,,119
1991-1-6,51,46,41,46,40,37,87,80,72,30.13,30.08,30.01,15,14,10,17,10,,0.13,7,,159
1991-1-7,51,49,46,48,47,46,99,93,90,30.22,30.19,30.14,15,9,0,8,5,,0.00,7,Fog,233
1991-1-8,53,46,38,41,39,38,97,79,62,30.19,30.03,29.85,15,9,6,9,7,,0.00,5,Fog,145
1991-1-9,53,50,48,45,43,40,84,76,71,30.11,30.01,29.88,15,12,7,5,4,,0.00,7,,128
1991-1-10,57,53,49,48,47,44,95,84,71,30.24,30.21,30.16,15,10,7,9,8,,0.01,5,Rain,145
1991-1-11,57,54,51,52,47,44,87,75,63,30.19,30.16,30.12,15,12,7,23,13,,0.07,5,Rain,162
1991-1-12,59,57,55,54,53,52,97,89,77,30.34,30.30,30.25,15,7,1,13,9,,0.05,8,Rain,170
1991-1-13,55,54,53,55,54,53,99,98,98,30.43,30.41,30.38,3,1,0,13,10,,0.13,8,Rain,218
1991-1-14,55,54,52,55,53,51,99,96,91,30.44,30.42,30.40,7,4,0,9,6,,0.03,7,,222
1991-1-15,52,52,47,51,48,44,99,89,77,30.47,30.43,30.40,7,5,2,17,9,,0.04,5,,340
1991-1-16,53,46,40,44,43,40,97,85,71,30.39,30.35,30.32,15,10,7,8,6,,0.00,3,,260
1991-1-17,59,52,44,48,46,42,92,83,64,30.31,30.24,30.15,15,9,5,6,5,,0.00,0,,288
1991-1-18,51,48,46,49,47,45,93,91,87,30.21,30.18,30.15,7,6,5,9,8,,0.08,5,,138
1991-1-19,51,48,44,46,45,44,97,92,81,30.25,30.19,30.15,7,6,3,7,4,,0.00,4,,213
1991-1-20,58,48,39,41,38,33,97,74,38,30.11,30.08,30.03,20,12,7,21,8,,0.00,1,,44
1991-1-21,56,52,45,39,32,25,60,52,42,30.23,30.20,30.14,20,16,10,9,5,,0.00,0,,74
1991-1-22,52,47,42,43,37,30,89,71,61,30.24,30.21,30.17,15,13,7,9,6,,0.00,1,,153
1991-1-23,49,46,43,43,42,41,95,85,77,30.26,30.23,30.17,7,5,2,16,9,,0.00,5,,51
1991-1-24,49,46,41,40,39,38,90,81,69,30.27,30.20,30.14,7,6,5,9,6,,0.00,0,,150
1991-1-25,49,38,38,44,40,37,97,91,80,30.10,30.06,30.04,7,4,0,12,6,,0.00,5,Fog,97
1991-1-26,50,48,44,42,41,39,82,78,67,30.22,30.20,30.17,15,10,7,13,5,,0.00,4,,36
1991-1-27,48,46,42,40,39,38,83,79,73,30.21,30.18,30.15,15,9,7,12,6,,0.00,4,,48
1991-1-28,48,44,40,37,37,35,87,76,65,30.15,30.13,30.12,15,10,7,14,8,,0.00,3,,25
1991-1-29,49,44,40,40,39,39,95,83,67,30.17,30.15,30.13,15,11,2,6,5,,0.00,1,,358
1991-1-30,49,43,37,43,40,35,92,84,80,30.18,30.15,30.12,10,8,7,9,8,,0.00,6,,20
1991-1-31,55,54,52,37,36,36,56,51,47,30.15,30.11,30.03,15,11,7,14,10,,0.00,6,,193